Terminal Aerodrome Forecast
Issued by NWS

Home | Current Version | Previous Version | Text Only | Print | Product List | Glossary On
Versions: 1 2 3 4 5 6 7 8 9 10 11 12 13
597
FTUS41 KCAR 160555
TAFBHB
TAF
KBHB 160555Z 1606/1706 36010G20KT P6SM -SN OVC020
     FM160900 36006KT P6SM OVC015
     FM161400 01008KT P6SM SCT020 BKN120
     FM170300 VRB02KT 5SM -SN SCT025 OVC035=

USA.gov is the U.S. government's official web portal to all federal, state and local government web resources and services.